sensor_id;sensor_type;location;lat;lon;timestamp;pressure;altitude;pressure_sealevel;temperature;humidity
21236;BME280;10775;42.678;26.324;2022-08-19T00:01:52;98179.00;;;27.73;59.17
21236;BME280;10775;42.678;26.324;2022-08-19T00:04:20;98175.16;;;27.75;59.05
21236;BME280;10775;42.678;26.324;2022-08-19T00:06:46;98174.38;;;27.10;57.17
21236;BME280;10775;42.678;26.324;2022-08-19T00:09:15;98178.34;;;26.59;59.69
21236;BME280;10775;42.678;26.324;2022-08-19T00:11:42;98180.16;;;26.39;61.97
21236;BME280;10775;42.678;26.324;2022-08-19T00:14:10;98179.28;;;26.77;62.42
21236;BME280;10775;42.678;26.324;2022-08-19T00:16:37;98177.13;;;26.91;61.02
21236;BME280;10775;42.678;26.324;2022-08-19T00:19:04;98175.63;;;27.25;61.11
21236;BME280;10775;42.678;26.324;2022-08-19T00:21:30;98179.69;;;27.57;59.65
21236;BME280;10775;42.678;26.324;2022-08-19T00:23:56;98175.41;;;27.64;59.48
21236;BME280;10775;42.678;26.324;2022-08-19T00:26:24;98183.63;;;27.53;59.27
21236;BME280;10775;42.678;26.324;2022-08-19T00:28:50;98172.78;;;27.17;59.94
21236;BME280;10775;42.678;26.324;2022-08-19T00:31:16;98173.91;;;26.77;57.96
21236;BME280;10775;42.678;26.324;2022-08-19T00:33:42;98177.72;;;27.22;61.04
21236;BME280;10775;42.678;26.324;2022-08-19T00:36:09;98181.72;;;27.18;60.58
21236;BME280;10775;42.678;26.324;2022-08-19T00:38:37;98178.75;;;27.21;57.48
21236;BME280;10775;42.678;26.324;2022-08-19T00:41:05;98172.84;;;27.07;60.89
21236;BME280;10775;42.678;26.324;2022-08-19T00:43:31;98170.88;;;27.00;60.17
21236;BME280;10775;42.678;26.324;2022-08-19T00:45:57;98168.72;;;27.23;60.44
21236;BME280;10775;42.678;26.324;2022-08-19T00:48:23;98166.16;;;27.21;60.62
21236;BME280;10775;42.678;26.324;2022-08-19T00:50:50;98169.16;;;27.46;59.91
21236;BME280;10775;42.678;26.324;2022-08-19T00:53:20;98167.41;;;27.54;59.72
21236;BME280;10775;42.678;26.324;2022-08-19T00:55:50;98173.69;;;27.63;59.17
21236;BME280;10775;42.678;26.324;2022-08-19T00:58:23;98172.72;;;27.37;59.48
21236;BME280;10775;42.678;26.324;2022-08-19T01:00:50;98168.44;;;27.06;60.11
21236;BME280;10775;42.678;26.324;2022-08-19T01:03:19;98169.97;;;27.19;60.56
21236;BME280;10775;42.678;26.324;2022-08-19T01:05:46;98164.72;;;27.17;60.02
21236;BME280;10775;42.678;26.324;2022-08-19T01:08:14;98167.50;;;26.98;61.02
21236;BME280;10775;42.678;26.324;2022-08-19T01:10:45;98170.53;;;27.22;60.62
21236;BME280;10775;42.678;26.324;2022-08-19T01:13:15;98167.09;;;27.30;60.33
21236;BME280;10775;42.678;26.324;2022-08-19T01:15:48;98164.88;;;27.25;60.30
21236;BME280;10775;42.678;26.324;2022-08-19T01:18:16;98171.59;;;27.39;59.89
21236;BME280;10775;42.678;26.324;2022-08-19T01:20:43;98156.44;;;27.20;60.78
21236;BME280;10775;42.678;26.324;2022-08-19T01:23:09;98162.09;;;27.45;59.66
21236;BME280;10775;42.678;26.324;2022-08-19T01:25:50;98160.81;;;27.49;59.22
21236;BME280;10775;42.678;26.324;2022-08-19T01:28:25;98166.03;;;27.23;59.17
21236;BME280;10775;42.678;26.324;2022-08-19T01:30:52;98168.63;;;27.32;59.89
21236;BME280;10775;42.678;26.324;2022-08-19T01:33:20;98168.84;;;27.49;59.57
21236;BME280;10775;42.678;26.324;2022-08-19T01:35:46;98170.13;;;27.45;59.45
21236;BME280;10775;42.678;26.324;2022-08-19T01:38:23;98171.09;;;27.53;59.39
21236;BME280;10775;42.678;26.324;2022-08-19T01:40:50;98166.88;;;27.51;59.08
21236;BME280;10775;42.678;26.324;2022-08-19T01:43:16;98173.25;;;27.40;59.58
21236;BME280;10775;42.678;26.324;2022-08-19T01:45:43;98167.31;;;27.46;59.29
21236;BME280;10775;42.678;26.324;2022-08-19T01:48:09;98167.41;;;27.54;59.27
21236;BME280;10775;42.678;26.324;2022-08-19T01:50:35;98166.47;;;27.18;58.97
21236;BME280;10775;42.678;26.324;2022-08-19T01:53:02;98170.34;;;27.34;60.00
21236;BME280;10775;42.678;26.324;2022-08-19T01:55:29;98164.75;;;27.45;59.22
21236;BME280;10775;42.678;26.324;2022-08-19T01:57:58;98159.22;;;26.81;59.03
21236;BME280;10775;42.678;26.324;2022-08-19T02:00:28;98159.41;;;26.70;61.52
21236;BME280;10775;42.678;26.324;2022-08-19T02:02:55;98155.84;;;26.79;61.58
21236;BME280;10775;42.678;26.324;2022-08-19T02:05:21;98157.47;;;26.23;62.26
21236;BME280;10775;42.678;26.324;2022-08-19T02:07:47;98156.59;;;26.72;61.87
21236;BME280;10775;42.678;26.324;2022-08-19T02:10:19;98160.69;;;27.03;60.49
21236;BME280;10775;42.678;26.324;2022-08-19T02:12:46;98161.78;;;26.73;61.94
21236;BME280;10775;42.678;26.324;2022-08-19T02:15:13;98156.56;;;27.09;60.82
21236;BME280;10775;42.678;26.324;2022-08-19T02:17:39;98161.06;;;26.71;61.04
21236;BME280;10775;42.678;26.324;2022-08-19T02:20:05;98163.31;;;26.85;61.12
21236;BME280;10775;42.678;26.324;2022-08-19T02:22:33;98159.97;;;27.11;60.69
21236;BME280;10775;42.678;26.324;2022-08-19T02:24:58;98159.25;;;27.09;60.60
21236;BME280;10775;42.678;26.324;2022-08-19T02:27:25;98161.94;;;27.09;60.63
21236;BME280;10775;42.678;26.324;2022-08-19T02:29:51;98167.72;;;26.77;61.06
21236;BME280;10775;42.678;26.324;2022-08-19T02:32:18;98168.84;;;26.74;61.08
21236;BME280;10775;42.678;26.324;2022-08-19T02:34:47;98178.03;;;26.62;61.59
21236;BME280;10775;42.678;26.324;2022-08-19T02:37:13;98169.91;;;26.91;61.20
21236;BME280;10775;42.678;26.324;2022-08-19T02:39:58;98171.06;;;26.88;60.66
21236;BME280;10775;42.678;26.324;2022-08-19T02:42:24;98170.88;;;27.00;60.87
21236;BME280;10775;42.678;26.324;2022-08-19T02:44:50;98172.22;;;27.23;60.21
21236;BME280;10775;42.678;26.324;2022-08-19T02:47:17;98178.69;;;27.30;59.81
21236;BME280;10775;42.678;26.324;2022-08-19T02:49:45;98179.16;;;27.06;60.13
21236;BME280;10775;42.678;26.324;2022-08-19T02:52:11;98186.97;;;27.00;60.63
21236;BME280;10775;42.678;26.324;2022-08-19T02:54:38;98179.34;;;27.05;60.15
21236;BME280;10775;42.678;26.324;2022-08-19T02:57:04;98179.88;;;27.08;60.55
21236;BME280;10775;42.678;26.324;2022-08-19T02:59:31;98186.72;;;26.93;60.72
21236;BME280;10775;42.678;26.324;2022-08-19T03:01:57;98188.19;;;27.15;60.36
21236;BME280;10775;42.678;26.324;2022-08-19T03:04:22;98196.50;;;27.22;60.06
21236;BME280;10775;42.678;26.324;2022-08-19T03:06:49;98193.09;;;27.29;59.49
21236;BME280;10775;42.678;26.324;2022-08-19T03:09:16;98197.09;;;27.16;59.51
21236;BME280;10775;42.678;26.324;2022-08-19T03:11:43;98203.88;;;27.10;60.10
21236;BME280;10775;42.678;26.324;2022-08-19T03:14:09;98209.09;;;27.02;60.03
21236;BME280;10775;42.678;26.324;2022-08-19T03:16:44;98217.94;;;26.84;61.01
21236;BME280;10775;42.678;26.324;2022-08-19T03:19:10;98211.22;;;27.08;60.59
21236;BME280;10775;42.678;26.324;2022-08-19T03:21:36;98217.44;;;27.08;58.50
21236;BME280;10775;42.678;26.324;2022-08-19T03:24:05;98212.69;;;25.86;57.48
21236;BME280;10775;42.678;26.324;2022-08-19T03:26:32;98207.94;;;26.09;63.14
21236;BME280;10775;42.678;26.324;2022-08-19T03:29:02;98215.13;;;26.47;62.34
21236;BME280;10775;42.678;26.324;2022-08-19T03:31:28;98214.00;;;26.40;61.88
21236;BME280;10775;42.678;26.324;2022-08-19T03:33:54;98212.16;;;26.70;60.42
21236;BME280;10775;42.678;26.324;2022-08-19T03:36:23;98214.13;;;26.87;61.01
21236;BME280;10775;42.678;26.324;2022-08-19T03:38:51;98221.06;;;26.70;59.27
21236;BME280;10775;42.678;26.324;2022-08-19T03:41:20;98217.38;;;26.52;61.77
21236;BME280;10775;42.678;26.324;2022-08-19T03:43:46;98217.34;;;26.81;61.20
21236;BME280;10775;42.678;26.324;2022-08-19T03:46:15;98215.06;;;26.96;60.75
21236;BME280;10775;42.678;26.324;2022-08-19T03:48:42;98221.13;;;27.07;60.33
21236;BME280;10775;42.678;26.324;2022-08-19T03:51:16;98221.66;;;27.11;59.99
21236;BME280;10775;42.678;26.324;2022-08-19T03:53:42;98229.41;;;27.14;59.88
21236;BME280;10775;42.678;26.324;2022-08-19T03:56:09;98230.41;;;27.23;59.37
21236;BME280;10775;42.678;26.324;2022-08-19T03:58:35;98227.88;;;27.21;59.63
21236;BME280;10775;42.678;26.324;2022-08-19T04:01:07;98229.84;;;27.09;59.90
21236;BME280;10775;42.678;26.324;2022-08-19T04:03:33;98230.13;;;27.06;59.90
21236;BME280;10775;42.678;26.324;2022-08-19T04:06:10;98227.88;;;27.11;59.77
21236;BME280;10775;42.678;26.324;2022-08-19T04:08:36;98227.88;;;27.11;59.80
21236;BME280;10775;42.678;26.324;2022-08-19T04:11:06;98232.41;;;27.01;60.00
21236;BME280;10775;42.678;26.324;2022-08-19T04:13:33;98240.81;;;26.69;60.77
21236;BME280;10775;42.678;26.324;2022-08-19T04:15:59;98237.84;;;26.72;61.04
21236;BME280;10775;42.678;26.324;2022-08-19T04:18:25;98244.13;;;27.00;60.18
21236;BME280;10775;42.678;26.324;2022-08-19T04:20:51;98244.69;;;27.04;60.28
21236;BME280;10775;42.678;26.324;2022-08-19T04:23:17;98245.69;;;27.03;59.88
21236;BME280;10775;42.678;26.324;2022-08-19T04:25:44;98246.25;;;26.97;60.03
21236;BME280;10775;42.678;26.324;2022-08-19T04:28:11;98235.81;;;26.94;60.27
21236;BME280;10775;42.678;26.324;2022-08-19T04:30:45;98243.97;;;27.02;60.07
21236;BME280;10775;42.678;26.324;2022-08-19T04:33:13;98243.66;;;27.15;59.73
21236;BME280;10775;42.678;26.324;2022-08-19T04:35:42;98234.53;;;27.07;58.52
21236;BME280;10775;42.678;26.324;2022-08-19T04:38:09;98252.03;;;27.02;60.11
21236;BME280;10775;42.678;26.324;2022-08-19T04:40:55;98249.63;;;26.99;60.02
21236;BME280;10775;42.678;26.324;2022-08-19T04:43:39;98245.09;;;27.09;59.67
21236;BME280;10775;42.678;26.324;2022-08-19T04:46:11;98247.88;;;27.17;59.50
21236;BME280;10775;42.678;26.324;2022-08-19T04:48:38;98242.81;;;27.24;59.31
21236;BME280;10775;42.678;26.324;2022-08-19T04:51:10;98245.06;;;27.28;59.05
21236;BME280;10775;42.678;26.324;2022-08-19T04:53:38;98244.78;;;27.31;59.09
21236;BME280;10775;42.678;26.324;2022-08-19T04:56:07;98237.44;;;27.34;58.68
21236;BME280;10775;42.678;26.324;2022-08-19T04:58:34;98246.31;;;27.34;58.80
21236;BME280;10775;42.678;26.324;2022-08-19T05:01:00;98246.84;;;27.38;58.62
21236;BME280;10775;42.678;26.324;2022-08-19T05:03:26;98240.75;;;27.45;58.44
21236;BME280;10775;42.678;26.324;2022-08-19T05:05:52;98247.81;;;27.46;58.33
21236;BME280;10775;42.678;26.324;2022-08-19T05:08:20;98247.53;;;27.49;58.05
21236;BME280;10775;42.678;26.324;2022-08-19T05:10:50;98247.97;;;27.45;58.23
21236;BME280;10775;42.678;26.324;2022-08-19T05:13:18;98252.34;;;27.46;58.25
21236;BME280;10775;42.678;26.324;2022-08-19T05:15:53;98248.38;;;27.50;58.29
21236;BME280;10775;42.678;26.324;2022-08-19T05:18:19;98259.41;;;27.47;58.24
21236;BME280;10775;42.678;26.324;2022-08-19T05:21:11;98255.13;;;27.07;56.25
21236;BME280;10775;42.678;26.324;2022-08-19T05:23:57;98254.41;;;27.24;58.95
21236;BME280;10775;42.678;26.324;2022-08-19T05:26:24;98250.50;;;27.46;58.42
21236;BME280;10775;42.678;26.324;2022-08-19T05:28:52;98251.06;;;27.40;58.01
21236;BME280;10775;42.678;26.324;2022-08-19T05:31:18;98250.63;;;27.07;58.75
21236;BME280;10775;42.678;26.324;2022-08-19T05:33:44;98252.50;;;26.68;53.93
21236;BME280;10775;42.678;26.324;2022-08-19T05:36:11;98248.72;;;27.27;58.58
21236;BME280;10775;42.678;26.324;2022-08-19T05:38:37;98250.75;;;27.53;57.90
21236;BME280;10775;42.678;26.324;2022-08-19T05:41:08;98246.28;;;27.44;53.07
21236;BME280;10775;42.678;26.324;2022-08-19T05:43:35;98245.84;;;27.48;58.29
21236;BME280;10775;42.678;26.324;2022-08-19T05:46:01;98245.91;;;27.29;54.15
21236;BME280;10775;42.678;26.324;2022-08-19T05:48:26;98249.41;;;27.67;57.47
21236;BME280;10775;42.678;26.324;2022-08-19T05:50:52;98246.66;;;27.86;56.90
21236;BME280;10775;42.678;26.324;2022-08-19T05:53:18;98243.59;;;27.99;56.57
21236;BME280;10775;42.678;26.324;2022-08-19T05:55:44;98248.75;;;27.92;56.43
21236;BME280;10775;42.678;26.324;2022-08-19T05:58:10;98251.13;;;27.95;56.55
21236;BME280;10775;42.678;26.324;2022-08-19T06:00:37;98251.56;;;27.91;56.25
21236;BME280;10775;42.678;26.324;2022-08-19T06:03:03;98254.41;;;27.62;53.63
21236;BME280;10775;42.678;26.324;2022-08-19T06:05:30;98250.00;;;27.61;54.20
21236;BME280;10775;42.678;26.324;2022-08-19T06:07:57;98248.59;;;27.66;56.04
21236;BME280;10775;42.678;26.324;2022-08-19T06:10:24;98244.81;;;27.87;56.56
21236;BME280;10775;42.678;26.324;2022-08-19T06:12:52;98241.13;;;27.88;55.88
21236;BME280;10775;42.678;26.324;2022-08-19T06:15:17;98236.47;;;28.08;56.10
21236;BME280;10775;42.678;26.324;2022-08-19T06:17:43;98237.56;;;28.15;55.86
21236;BME280;10775;42.678;26.324;2022-08-19T06:20:14;98241.59;;;28.01;53.59
21236;BME280;10775;42.678;26.324;2022-08-19T06:22:44;98242.53;;;27.92;55.83
21236;BME280;10775;42.678;26.324;2022-08-19T06:25:12;98241.69;;;28.09;55.45
21236;BME280;10775;42.678;26.324;2022-08-19T06:27:39;98238.63;;;28.22;55.39
21236;BME280;10775;42.678;26.324;2022-08-19T06:30:06;98250.63;;;28.10;52.71
21236;BME280;10775;42.678;26.324;2022-08-19T06:32:32;98232.38;;;27.86;53.94
21236;BME280;10775;42.678;26.324;2022-08-19T06:34:57;98245.47;;;28.16;55.46
21236;BME280;10775;42.678;26.324;2022-08-19T06:37:23;98241.47;;;28.38;53.18
21236;BME280;10775;42.678;26.324;2022-08-19T06:39:50;98239.09;;;28.35;51.55
21236;BME280;10775;42.678;26.324;2022-08-19T06:42:16;98230.72;;;28.03;52.06
21236;BME280;10775;42.678;26.324;2022-08-19T06:44:46;98235.88;;;28.50;54.55
21236;BME280;10775;42.678;26.324;2022-08-19T06:47:17;98235.94;;;28.40;52.78
21236;BME280;10775;42.678;26.324;2022-08-19T06:49:43;98235.66;;;28.43;49.40
21236;BME280;10775;42.678;26.324;2022-08-19T06:52:11;98230.63;;;28.84;48.24
21236;BME280;10775;42.678;26.324;2022-08-19T06:54:37;98240.03;;;28.62;48.76
21236;BME280;10775;42.678;26.324;2022-08-19T06:57:05;98237.56;;;28.69;48.69
21236;BME280;10775;42.678;26.324;2022-08-19T06:59:32;98228.53;;;29.22;47.50
21236;BME280;10775;42.678;26.324;2022-08-19T07:02:01;98233.28;;;30.21;45.05
21236;BME280;10775;42.678;26.324;2022-08-19T07:04:31;98237.41;;;30.83;43.54
21236;BME280;10775;42.678;26.324;2022-08-19T07:07:09;98233.31;;;31.11;42.30
21236;BME280;10775;42.678;26.324;2022-08-19T07:09:37;98236.00;;;30.29;43.90
21236;BME280;10775;42.678;26.324;2022-08-19T07:12:05;98235.34;;;30.52;43.88
21236;BME280;10775;42.678;26.324;2022-08-19T07:14:33;98233.88;;;31.62;42.78
21236;BME280;10775;42.678;26.324;2022-08-19T07:17:04;98232.78;;;31.16;42.42
21236;BME280;10775;42.678;26.324;2022-08-19T07:19:30;98230.81;;;30.85;43.04
21236;BME280;10775;42.678;26.324;2022-08-19T07:21:57;98226.66;;;32.17;41.06
21236;BME280;10775;42.678;26.324;2022-08-19T07:24:26;98230.88;;;32.66;38.10
21236;BME280;10775;42.678;26.324;2022-08-19T07:26:54;98231.44;;;31.76;39.99
21236;BME280;10775;42.678;26.324;2022-08-19T07:29:21;98231.16;;;31.62;40.46
21236;BME280;10775;42.678;26.324;2022-08-19T07:31:49;98224.50;;;32.13;35.39
21236;BME280;10775;42.678;26.324;2022-08-19T07:34:15;98239.25;;;32.02;39.27
21236;BME280;10775;42.678;26.324;2022-08-19T07:36:42;98238.56;;;31.69;36.58
21236;BME280;10775;42.678;26.324;2022-08-19T07:39:17;98229.19;;;32.19;40.34
21236;BME280;10775;42.678;26.324;2022-08-19T07:41:44;98232.22;;;32.47;36.66
21236;BME280;10775;42.678;26.324;2022-08-19T07:44:12;98233.31;;;32.61;39.26
21236;BME280;10775;42.678;26.324;2022-08-19T07:46:41;98231.53;;;32.45;38.14
21236;BME280;10775;42.678;26.324;2022-08-19T07:49:10;98230.75;;;32.36;39.61
21236;BME280;10775;42.678;26.324;2022-08-19T07:51:44;98225.13;;;33.07;38.39
21236;BME280;10775;42.678;26.324;2022-08-19T07:54:10;98228.31;;;32.26;39.97
21236;BME280;10775;42.678;26.324;2022-08-19T07:56:37;98223.84;;;32.57;38.73
21236;BME280;10775;42.678;26.324;2022-08-19T07:59:03;98214.81;;;31.87;39.76
21236;BME280;10775;42.678;26.324;2022-08-19T08:01:30;98222.31;;;31.77;40.68
21236;BME280;10775;42.678;26.324;2022-08-19T08:03:56;98222.13;;;31.78;40.27
21236;BME280;10775;42.678;26.324;2022-08-19T08:06:41;98215.25;;;32.07;39.94
21236;BME280;10775;42.678;26.324;2022-08-19T08:09:32;98211.06;;;31.65;40.32
21236;BME280;10775;42.678;26.324;2022-08-19T08:12:05;98209.53;;;32.25;38.94
21236;BME280;10775;42.678;26.324;2022-08-19T08:14:42;98202.09;;;32.73;38.64
21236;BME280;10775;42.678;26.324;2022-08-19T08:17:10;98211.41;;;33.08;37.94
21236;BME280;10775;42.678;26.324;2022-08-19T08:19:36;98212.41;;;33.07;37.26
21236;BME280;10775;42.678;26.324;2022-08-19T08:22:03;98214.53;;;32.36;37.44
21236;BME280;10775;42.678;26.324;2022-08-19T08:24:31;98219.88;;;31.90;37.83
21236;BME280;10775;42.678;26.324;2022-08-19T08:26:59;98207.69;;;32.25;37.90
21236;BME280;10775;42.678;26.324;2022-08-19T08:29:28;98198.44;;;33.04;37.65
21236;BME280;10775;42.678;26.324;2022-08-19T08:31:55;98198.28;;;32.97;37.10
21236;BME280;10775;42.678;26.324;2022-08-19T08:34:21;98209.91;;;33.65;36.08
21236;BME280;10775;42.678;26.324;2022-08-19T08:36:47;98205.59;;;32.59;37.15
21236;BME280;10775;42.678;26.324;2022-08-19T08:39:16;98201.59;;;32.55;37.38
21236;BME280;10775;42.678;26.324;2022-08-19T08:41:53;98206.19;;;32.84;37.24
21236;BME280;10775;42.678;26.324;2022-08-19T08:44:51;98193.81;;;33.49;36.50
21236;BME280;10775;42.678;26.324;2022-08-19T08:47:20;98192.63;;;33.66;36.64
21236;BME280;10775;42.678;26.324;2022-08-19T08:49:55;98194.78;;;33.11;36.86
21236;BME280;10775;42.678;26.324;2022-08-19T08:52:34;98188.50;;;32.96;37.09
21236;BME280;10775;42.678;26.324;2022-08-19T08:55:07;98191.06;;;32.60;38.30
21236;BME280;10775;42.678;26.324;2022-08-19T08:57:53;98195.13;;;32.94;37.58
21236;BME280;10775;42.678;26.324;2022-08-19T09:00:31;98193.84;;;33.04;37.91
21236;BME280;10775;42.678;26.324;2022-08-19T09:02:59;98198.22;;;32.53;38.01
21236;BME280;10775;42.678;26.324;2022-08-19T09:08:17;98182.25;;;33.40;36.97
21236;BME280;10775;42.678;26.324;2022-08-19T09:10:51;98189.38;;;33.56;37.85
21236;BME280;10775;42.678;26.324;2022-08-19T09:16:21;98198.41;;;33.48;39.10
21236;BME280;10775;42.678;26.324;2022-08-19T09:19:02;98195.56;;;32.44;38.70
21236;BME280;10775;42.678;26.324;2022-08-19T09:21:28;98191.47;;;33.01;37.39
21236;BME280;10775;42.678;26.324;2022-08-19T09:23:54;98195.81;;;32.58;37.76
21236;BME280;10775;42.678;26.324;2022-08-19T09:26:22;98187.84;;;32.94;39.52
21236;BME280;10775;42.678;26.324;2022-08-19T09:28:49;98184.41;;;33.30;36.70
21236;BME280;10775;42.678;26.324;2022-08-19T09:31:21;98181.31;;;33.18;36.08
21236;BME280;10775;42.678;26.324;2022-08-19T09:33:48;98179.06;;;33.51;36.14
21236;BME280;10775;42.678;26.324;2022-08-19T09:36:19;98182.81;;;33.50;35.98
21236;BME280;10775;42.678;26.324;2022-08-19T09:38:45;98184.19;;;33.46;35.10
21236;BME280;10775;42.678;26.324;2022-08-19T09:41:17;98186.56;;;33.34;35.90
21236;BME280;10775;42.678;26.324;2022-08-19T09:43:48;98176.28;;;33.30;35.11
21236;BME280;10775;42.678;26.324;2022-08-19T09:46:18;98185.13;;;32.94;35.67
21236;BME280;10775;42.678;26.324;2022-08-19T09:48:47;98177.38;;;32.91;42.33
21236;BME280;10775;42.678;26.324;2022-08-19T09:51:17;98176.28;;;33.45;36.13
21236;BME280;10775;42.678;26.324;2022-08-19T09:53:45;98189.66;;;33.02;38.21
21236;BME280;10775;42.678;26.324;2022-08-19T09:56:12;98187.94;;;32.48;35.93
21236;BME280;10775;42.678;26.324;2022-08-19T09:58:39;98186.50;;;32.75;35.96
21236;BME280;10775;42.678;26.324;2022-08-19T10:01:07;98175.91;;;33.63;37.50
21236;BME280;10775;42.678;26.324;2022-08-19T10:03:34;98181.63;;;33.89;35.33
21236;BME280;10775;42.678;26.324;2022-08-19T10:06:03;98182.41;;;33.53;35.97
21236;BME280;10775;42.678;26.324;2022-08-19T10:08:35;98186.78;;;32.95;35.46
21236;BME280;10775;42.678;26.324;2022-08-19T10:11:03;98180.66;;;33.31;34.51
21236;BME280;10775;42.678;26.324;2022-08-19T10:13:30;98183.44;;;32.78;35.59
21236;BME280;10775;42.678;26.324;2022-08-19T10:16:08;98181.03;;;33.43;34.80
21236;BME280;10775;42.678;26.324;2022-08-19T10:18:35;98180.47;;;33.03;36.84
21236;BME280;10775;42.678;26.324;2022-08-19T10:21:07;98181.38;;;32.19;37.92
21236;BME280;10775;42.678;26.324;2022-08-19T10:23:37;98168.50;;;32.82;36.49
21236;BME280;10775;42.678;26.324;2022-08-19T10:26:06;98169.59;;;33.11;37.01
21236;BME280;10775;42.678;26.324;2022-08-19T10:28:36;98168.28;;;33.07;35.89
21236;BME280;10775;42.678;26.324;2022-08-19T10:31:07;98166.38;;;33.52;35.47
21236;BME280;10775;42.678;26.324;2022-08-19T10:33:33;98165.06;;;33.48;35.00
21236;BME280;10775;42.678;26.324;2022-08-19T10:36:01;98171.81;;;33.37;35.63
21236;BME280;10775;42.678;26.324;2022-08-19T10:38:27;98176.09;;;33.61;34.64
21236;BME280;10775;42.678;26.324;2022-08-19T10:40:54;98163.13;;;34.57;33.27
21236;BME280;10775;42.678;26.324;2022-08-19T10:43:20;98166.25;;;33.75;33.79
21236;BME280;10775;42.678;26.324;2022-08-19T10:45:52;98177.50;;;33.27;35.35
21236;BME280;10775;42.678;26.324;2022-08-19T10:48:19;98174.41;;;32.25;36.38
21236;BME280;10775;42.678;26.324;2022-08-19T10:50:44;98174.41;;;32.48;36.85
21236;BME280;10775;42.678;26.324;2022-08-19T10:53:28;98176.19;;;32.56;36.93
21236;BME280;10775;42.678;26.324;2022-08-19T10:55:54;98179.94;;;32.09;37.12
21236;BME280;10775;42.678;26.324;2022-08-19T10:58:38;98162.69;;;32.33;37.04
21236;BME280;10775;42.678;26.324;2022-08-19T11:01:04;98162.28;;;33.56;33.38
21236;BME280;10775;42.678;26.324;2022-08-19T11:03:29;98157.06;;;33.10;35.61
21236;BME280;10775;42.678;26.324;2022-08-19T11:06:05;98161.41;;;32.43;36.30
21236;BME280;10775;42.678;26.324;2022-08-19T11:08:34;98165.75;;;32.30;36.42
21236;BME280;10775;42.678;26.324;2022-08-19T11:11:01;98175.28;;;32.40;35.38
21236;BME280;10775;42.678;26.324;2022-08-19T11:13:36;98157.16;;;33.02;35.71
21236;BME280;10775;42.678;26.324;2022-08-19T11:16:08;98161.53;;;33.03;35.21
21236;BME280;10775;42.678;26.324;2022-08-19T11:18:39;98159.38;;;32.98;36.31
21236;BME280;10775;42.678;26.324;2022-08-19T11:23:36;98157.28;;;34.11;33.87
21236;BME280;10775;42.678;26.324;2022-08-19T11:26:02;98147.91;;;33.77;32.72
21236;BME280;10775;42.678;26.324;2022-08-19T11:28:28;98148.31;;;33.74;33.63
21236;BME280;10775;42.678;26.324;2022-08-19T11:30:54;98149.56;;;33.93;33.51
21236;BME280;10775;42.678;26.324;2022-08-19T11:33:20;98150.06;;;33.82;34.91
21236;BME280;10775;42.678;26.324;2022-08-19T11:35:45;98137.72;;;33.28;36.21
21236;BME280;10775;42.678;26.324;2022-08-19T11:38:11;98140.91;;;33.83;34.20
21236;BME280;10775;42.678;26.324;2022-08-19T11:40:37;98140.44;;;33.79;34.55
21236;BME280;10775;42.678;26.324;2022-08-19T11:43:03;98140.38;;;34.09;34.13
21236;BME280;10775;42.678;26.324;2022-08-19T11:45:30;98139.53;;;33.72;33.80
21236;BME280;10775;42.678;26.324;2022-08-19T11:47:56;98139.00;;;32.87;35.56
21236;BME280;10775;42.678;26.324;2022-08-19T11:50:23;98142.41;;;33.19;35.74
21236;BME280;10775;42.678;26.324;2022-08-19T11:52:49;98142.09;;;33.44;34.65
21236;BME280;10775;42.678;26.324;2022-08-19T11:55:15;98137.25;;;32.95;34.33
21236;BME280;10775;42.678;26.324;2022-08-19T11:57:41;98131.53;;;32.75;33.19
21236;BME280;10775;42.678;26.324;2022-08-19T12:00:09;98131.03;;;33.09;34.42
21236;BME280;10775;42.678;26.324;2022-08-19T12:02:37;98142.41;;;33.34;34.11
21236;BME280;10775;42.678;26.324;2022-08-19T12:05:03;98126.44;;;33.24;34.23
21236;BME280;10775;42.678;26.324;2022-08-19T12:07:29;98128.75;;;33.27;34.70
21236;BME280;10775;42.678;26.324;2022-08-19T12:09:59;98127.94;;;33.12;34.80
21236;BME280;10775;42.678;26.324;2022-08-19T12:12:26;98124.69;;;33.17;34.28
21236;BME280;10775;42.678;26.324;2022-08-19T12:14:52;98124.19;;;33.13;35.16
21236;BME280;10775;42.678;26.324;2022-08-19T12:17:25;98122.63;;;33.19;34.65
21236;BME280;10775;42.678;26.324;2022-08-19T12:19:52;98111.03;;;33.25;34.94
21236;BME280;10775;42.678;26.324;2022-08-19T12:22:18;98113.72;;;33.76;34.53
21236;BME280;10775;42.678;26.324;2022-08-19T12:24:46;98118.38;;;33.46;34.81
21236;BME280;10775;42.678;26.324;2022-08-19T12:27:11;98113.03;;;33.67;34.97
21236;BME280;10775;42.678;26.324;2022-08-19T12:29:37;98109.97;;;33.77;35.30
21236;BME280;10775;42.678;26.324;2022-08-19T12:32:03;98114.03;;;33.51;34.47
21236;BME280;10775;42.678;26.324;2022-08-19T12:34:30;98107.13;;;33.12;34.98
21236;BME280;10775;42.678;26.324;2022-08-19T12:36:57;98103.88;;;33.53;35.09
21236;BME280;10775;42.678;26.324;2022-08-19T12:39:23;98108.88;;;33.05;35.60
21236;BME280;10775;42.678;26.324;2022-08-19T12:41:49;98119.25;;;33.31;35.18
21236;BME280;10775;42.678;26.324;2022-08-19T12:44:15;98113.22;;;33.66;34.83
21236;BME280;10775;42.678;26.324;2022-08-19T12:46:41;98119.78;;;33.42;34.83
21236;BME280;10775;42.678;26.324;2022-08-19T12:49:07;98114.13;;;33.73;35.09
21236;BME280;10775;42.678;26.324;2022-08-19T12:51:33;98107.84;;;34.09;34.46
21236;BME280;10775;42.678;26.324;2022-08-19T12:53:58;98106.22;;;34.42;30.52
21236;BME280;10775;42.678;26.324;2022-08-19T12:56:24;98102.72;;;34.49;33.77
21236;BME280;10775;42.678;26.324;2022-08-19T12:58:50;98102.44;;;33.72;33.59
21236;BME280;10775;42.678;26.324;2022-08-19T13:01:16;98110.19;;;33.97;33.43
21236;BME280;10775;42.678;26.324;2022-08-19T13:03:45;98095.44;;;34.21;32.95
21236;BME280;10775;42.678;26.324;2022-08-19T13:06:11;98096.50;;;34.05;34.29